Time;durP1;ratioP1;P1;durP2;ratioP2;P2;SDS_P1;SDS_P2;PMS_P1;PMS_P2;Temp;Humidity;BMP_temperature;BMP_pressure;BME280_temperature;BME280_humidity;BME280_pressure;Samples;Min_cycle;Max_cycle;Signal;HPM_P1;HPM_P2
2023/04/28 00:00:50;;;;;;;44.83;29.90;;;;;;;10.28;50.22;100686.06;5016194;28;97474;-86
2023/04/28 00:03:16;;;;;;;50.55;31.05;;;;;;;10.23;49.66;100674.78;5016127;28;96743;-84
2023/04/28 00:05:42;;;;;;;45.63;28.88;;;;;;;10.33;49.36;100685.94;5016484;28;96814;-84
2023/04/28 00:08:07;;;;;;;40.70;29.27;;;;;;;10.28;49.31;100679.94;5028769;28;102057;-85
2023/04/28 00:10:33;;;;;;;41.45;28.35;;;;;;;10.30;48.91;100680.78;5013484;28;100799;-85
2023/04/28 00:12:59;;;;;;;40.03;29.17;;;;;;;10.32;48.93;100686.81;5031059;28;96868;-83
2023/04/28 00:15:24;;;;;;;42.13;28.63;;;;;;;10.29;49.05;100684.28;5015983;28;96957;-84
2023/04/28 00:17:50;;;;;;;40.85;29.58;;;;;;;10.27;48.71;100684.34;5019399;28;98117;-84
2023/04/28 00:20:16;;;;;;;42.75;27.75;;;;;;;10.24;49.14;100681.78;5036184;27;101657;-84
2023/04/28 00:22:41;;;;;;;51.53;30.08;;;;;;;10.28;48.97;100679.94;5014992;28;97017;-84
2023/04/28 00:25:07;;;;;;;45.47;29.83;;;;;;;10.25;49.00;100673.00;5015032;28;97153;-83
2023/04/28 00:27:34;;;;;;;41.10;27.83;;;;;;;10.22;49.11;100665.19;5017738;28;98255;-83
2023/04/28 00:30:00;;;;;;;44.97;30.05;;;;;;;10.25;48.88;100669.50;4998001;28;100929;-84
2023/04/28 00:32:27;;;;;;;41.83;27.48;;;;;;;10.20;49.19;100665.22;5012301;28;97285;-84
2023/04/28 00:34:52;;;;;;;44.85;28.85;;;;;;;10.23;49.53;100666.06;5011763;28;97081;-84
2023/04/28 00:37:21;;;;;;;43.22;28.27;;;;;;;10.26;49.21;100668.59;5013551;28;98038;-84
2023/04/28 00:39:46;;;;;;;40.13;26.88;;;;;;;10.23;49.01;100666.91;5032735;28;98177;-84
2023/04/28 00:42:12;;;;;;;39.80;27.08;;;;;;;10.26;49.06;100671.22;5013262;28;96774;-84
2023/04/28 00:44:39;;;;;;;38.78;27.75;;;;;;;10.22;48.65;100667.81;5025277;28;96943;-84
2023/04/28 00:47:05;;;;;;;38.53;26.83;;;;;;;10.24;49.08;100667.78;5031726;28;98603;-84
2023/04/28 00:49:32;;;;;;;39.92;27.85;;;;;;;10.19;49.36;100670.53;4998641;28;101166;-84
2023/04/28 00:52:02;;;;;;;37.47;26.95;;;;;;;10.18;49.62;100664.44;4986550;28;97060;-84
2023/04/28 00:54:28;;;;;;;37.83;27.27;;;;;;;10.21;49.42;100660.88;5032636;27;97334;-83
2023/04/28 00:56:53;;;;;;;39.13;27.90;;;;;;;10.14;49.44;100659.28;5014698;28;98544;-86
2023/04/28 00:59:19;;;;;;;34.15;26.92;;;;;;;10.20;49.30;100657.34;5028060;27;101104;-83
2023/04/28 01:01:45;;;;;;;40.60;28.17;;;;;;;10.13;49.33;100658.44;5009250;28;97110;-84
2023/04/28 01:04:10;;;;;;;40.47;27.15;;;;;;;9.97;49.62;100629.13;5008440;27;97543;-84
2023/04/28 01:06:38;;;;;;;42.38;28.77;;;;;;;10.13;49.79;100660.22;5014542;28;100014;-84
2023/04/28 01:09:06;;;;;;;35.40;27.30;;;;;;;10.05;49.72;100644.66;5014154;28;101205;-83
2023/04/28 01:11:31;;;;;;;38.05;26.25;;;;;;;10.13;50.17;100645.31;5028972;27;96964;-84
2023/04/28 01:14:08;;;;;;;41.58;27.70;;;;;;;10.14;49.86;100644.41;5016081;28;96963;-83
2023/04/28 01:16:37;;;;;;;36.97;28.02;;;;;;;10.11;50.07;100656.75;5028570;28;98025;-84
2023/04/28 01:19:06;;;;;;;38.42;28.13;;;;;;;10.11;50.11;100652.38;4998049;28;101311;-84
2023/04/28 01:21:33;;;;;;;42.67;28.50;;;;;;;9.98;50.03;100622.13;5027613;27;97487;-83
2023/04/28 01:24:19;;;;;;;37.65;27.95;;;;;;;10.08;50.49;100643.72;5016392;28;97217;-83
2023/04/28 01:26:45;;;;;;;39.92;28.02;;;;;;;10.07;50.13;100640.25;5018483;28;101098;-84
2023/04/28 01:29:10;;;;;;;38.28;27.38;;;;;;;10.04;49.99;100637.72;5031150;27;101455;-83
2023/04/28 01:31:36;;;;;;;39.50;27.08;;;;;;;9.99;50.58;100634.34;5048612;27;96801;-83
2023/04/28 01:34:01;;;;;;;41.33;28.17;;;;;;;9.96;50.70;100631.78;5013401;28;96757;-84
2023/04/28 01:36:28;;;;;;;36.75;28.17;;;;;;;9.82;50.70;100602.47;5023177;27;101573;-83
2023/04/28 01:38:54;;;;;;;37.50;27.65;;;;;;;9.98;50.76;100633.47;5010490;28;100939;-84
2023/04/28 01:41:20;;;;;;;34.72;27.15;;;;;;;9.96;50.38;100624.78;5013689;28;96785;-84
2023/04/28 01:43:45;;;;;;;33.47;26.98;;;;;;;9.94;50.94;100633.59;5016119;28;98134;-84
2023/04/28 01:46:11;;;;;;;41.10;27.73;;;;;;;9.93;50.69;100630.13;5014056;28;97921;-83
2023/04/28 01:48:36;;;;;;;38.53;27.38;;;;;;;9.91;50.54;100634.53;5017757;28;98122;-83
2023/04/28 01:51:02;;;;;;;36.88;26.63;;;;;;;9.93;50.76;100629.25;5010665;28;96730;-84
2023/04/28 01:53:29;;;;;;;36.63;27.52;;;;;;;9.88;50.86;100639.84;5028120;28;98263;-84
2023/04/28 01:55:55;;;;;;;41.70;27.23;;;;;;;9.88;50.94;100628.50;4997429;28;101432;-83
2023/04/28 01:58:20;;;;;;;34.58;25.98;;;;;;;9.79;51.10;100620.91;5001012;28;101877;-84
2023/04/28 02:00:46;;;;;;;33.38;25.50;;;;;;;9.87;50.81;100617.16;5014394;28;96888;-84
2023/04/28 02:03:13;;;;;;;32.53;25.42;;;;;;;9.72;51.09;100604.47;5002844;28;96771;-84
2023/04/28 02:05:39;;;;;;;34.20;25.13;;;;;;;9.87;51.06;100629.44;5014109;28;98235;-84
2023/04/28 02:08:05;;;;;;;36.05;25.35;;;;;;;9.84;50.93;100630.38;5031763;27;97775;-83
2023/04/28 02:10:30;;;;;;;32.05;24.67;;;;;;;9.87;50.93;100621.56;5024758;28;97137;-83
2023/04/28 02:12:56;;;;;;;36.13;25.25;;;;;;;9.85;50.75;100625.97;5013213;28;97218;-85
2023/04/28 02:15:21;;;;;;;32.30;25.52;;;;;;;9.80;51.19;100623.47;4996325;28;101586;-83
2023/04/28 02:17:47;;;;;;;33.20;25.52;;;;;;;9.81;51.01;100617.34;5008684;28;100927;-83
2023/04/28 02:20:15;;;;;;;33.67;25.33;;;;;;;9.87;51.04;100621.56;5013826;28;97135;-84
2023/04/28 02:22:41;;;;;;;33.95;26.10;;;;;;;9.84;51.07;100626.88;5014038;28;97969;-84
2023/04/28 02:25:07;;;;;;;36.58;24.58;;;;;;;9.80;51.13;100619.97;5012521;28;98157;-84
2023/04/28 02:27:37;;;;;;;37.03;26.00;;;;;;;9.85;51.07;100620.72;5009955;28;100061;-83
2023/04/28 02:30:06;;;;;;;29.20;23.42;;;;;;;9.84;50.77;100619.03;5020238;28;96868;-84
2023/04/28 02:32:31;;;;;;;30.60;22.25;;;;;;;9.70;51.06;100590.53;5024779;28;97240;-83
2023/04/28 02:34:57;;;;;;;30.77;22.45;;;;;;;9.80;51.12;100617.34;5023698;27;101922;-85
2023/04/28 02:37:23;;;;;;;30.73;23.60;;;;;;;9.81;50.41;100611.22;5001621;28;101169;-84
2023/04/28 02:39:49;;;;;;;29.98;23.88;;;;;;;9.61;50.64;100596.03;5013449;28;97244;-84
2023/04/28 02:42:15;;;;;;;30.00;23.33;;;;;;;9.70;50.71;100609.75;5013186;28;96851;-84
2023/04/28 02:44:41;;;;;;;30.13;24.10;;;;;;;9.52;51.18;100615.47;5030341;28;98218;-83
2023/04/28 02:47:06;;;;;;;30.50;23.42;;;;;;;9.50;51.51;100609.38;4983006;28;101386;-83
2023/04/28 02:49:32;;;;;;;27.83;23.67;;;;;;;9.52;51.42;100612.84;5012269;28;97207;-83
2023/04/28 02:51:58;;;;;;;27.70;22.73;;;;;;;9.58;51.46;100610.06;5013318;28;97128;-84
2023/04/28 02:54:26;;;;;;;28.73;23.17;;;;;;;9.55;51.35;100599.66;5012525;28;101945;-83
2023/04/28 02:56:53;;;;;;;27.23;22.45;;;;;;;9.46;51.52;100589.41;5000916;28;100647;-83
2023/04/28 02:59:20;;;;;;;29.30;24.45;;;;;;;9.51;52.05;100603.22;5019522;28;96867;-84
2023/04/28 03:01:46;;;;;;;28.98;23.85;;;;;;;9.53;51.72;100610.16;5030292;28;98287;-83
2023/04/28 03:04:11;;;;;;;32.08;23.63;;;;;;;9.53;51.79;100604.06;5009073;28;101286;-84
2023/04/28 03:06:37;;;;;;;24.60;22.05;;;;;;;9.49;52.05;100603.28;5026113;28;101525;-84
2023/04/28 03:09:02;;;;;;;27.95;23.27;;;;;;;9.47;52.03;100597.22;5019860;28;96888;-84
2023/04/28 03:11:28;;;;;;;25.65;22.77;;;;;;;9.39;52.08;100612.25;5002722;28;97004;-84
2023/04/28 03:13:54;;;;;;;28.95;23.75;;;;;;;9.37;52.03;100600.13;5029788;28;101719;-84
2023/04/28 03:16:20;;;;;;;27.20;22.73;;;;;;;9.40;52.12;100611.38;5005436;27;101190;-84
2023/04/28 03:18:46;;;;;;;28.23;22.60;;;;;;;9.39;52.32;100609.63;5016446;28;98069;-83
2023/04/28 03:21:11;;;;;;;29.13;22.58;;;;;;;9.40;52.17;100602.66;5013312;28;96956;-84
2023/04/28 03:23:37;;;;;;;30.63;23.45;;;;;;;9.20;52.42;100590.91;5012481;28;101209;-84
2023/04/28 03:26:03;;;;;;;29.35;24.58;;;;;;;9.13;52.93;100602.41;4996977;28;101228;-84
2023/04/28 03:28:28;;;;;;;34.72;25.88;;;;;;;9.15;52.87;100605.84;5029506;28;97246;-84
2023/04/28 03:30:54;;;;;;;35.55;25.15;;;;;;;9.07;52.94;100611.28;4996262;28;97284;-83
2023/04/28 03:33:20;;;;;;;27.10;24.02;;;;;;;8.98;53.22;100597.53;5011983;28;100713;-84
2023/04/28 03:35:46;;;;;;;34.80;25.50;;;;;;;8.99;53.51;100592.28;5012259;28;101769;-84
2023/04/28 03:38:11;;;;;;;28.73;25.08;;;;;;;9.09;53.63;100600.78;5029204;28;96993;-84
2023/04/28 03:40:37;;;;;;;29.13;24.20;;;;;;;9.06;53.63;100601.69;5013461;28;98001;-83
2023/04/28 03:43:21;;;;;;;31.90;24.55;;;;;;;9.10;53.61;100601.63;5029598;28;97407;-84
2023/04/28 03:46:05;;;;;;;32.95;25.13;;;;;;;9.13;53.22;100599.78;5013151;28;101779;-84
2023/04/28 03:48:32;;;;;;;29.65;23.65;;;;;;;9.05;53.14;100581.66;4996590;28;97193;-83
2023/04/28 03:50:57;;;;;;;32.33;26.58;;;;;;;9.11;53.76;100601.59;5011308;28;96972;-83
2023/04/28 03:53:24;;;;;;;30.80;24.70;;;;;;;9.13;53.46;100593.69;5035491;27;100846;-84
2023/04/28 03:55:50;;;;;;;33.55;25.00;;;;;;;9.10;53.58;100591.16;5021382;28;98518;-84
2023/04/28 03:58:17;;;;;;;30.75;25.90;;;;;;;9.10;53.24;100592.00;4996167;28;97384;-83
2023/04/28 04:00:43;;;;;;;28.75;25.73;;;;;;;9.10;53.44;100597.25;5010163;28;96926;-83
2023/04/28 04:03:09;;;;;;;35.15;26.13;;;;;;;9.11;53.51;100598.97;5027137;27;100762;-84
2023/04/28 04:05:35;;;;;;;32.17;26.77;;;;;;;9.06;53.52;100611.31;5006069;28;97926;-83
2023/04/28 04:08:01;;;;;;;34.28;26.25;;;;;;;8.99;54.15;100596.66;5016699;28;98063;-84
2023/04/28 04:10:28;;;;;;;33.63;27.05;;;;;;;9.00;53.63;100583.50;5000548;28;96953;-83
2023/04/28 04:12:53;;;;;;;30.55;27.25;;;;;;;9.12;52.98;100597.22;5015414;28;101258;-83
2023/04/28 04:15:19;;;;;;;31.90;27.08;;;;;;;9.16;53.23;100596.25;5015480;28;97765;-83
2023/04/28 04:17:46;;;;;;;39.13;27.27;;;;;;;8.92;53.91;100602.91;5015924;28;96876;-84
2023/04/28 04:20:13;;;;;;;33.17;26.95;;;;;;;8.97;53.46;100606.31;5029824;28;97206;-83
2023/04/28 04:22:39;;;;;;;33.70;27.27;;;;;;;9.00;53.28;100591.38;5031986;28;98505;-83
2023/04/28 04:25:05;;;;;;;32.53;26.77;;;;;;;9.11;53.13;100606.00;5004066;28;101079;-85
2023/04/28 04:27:32;;;;;;;34.92;26.83;;;;;;;9.04;52.56;100589.53;5028557;27;97179;-84
2023/04/28 04:29:57;;;;;;;38.20;27.45;;;;;;;9.03;52.87;100593.06;5031736;28;97025;-83
2023/04/28 04:32:23;;;;;;;34.97;26.85;;;;;;;8.93;53.23;100600.28;5014735;28;101547;-84
2023/04/28 04:34:48;;;;;;;32.10;26.90;;;;;;;8.97;52.83;100588.81;5021415;28;101227;-83
2023/04/28 04:37:14;;;;;;;32.22;27.45;;;;;;;9.01;53.08;100587.00;5037652;27;96754;-84
2023/04/28 04:39:47;;;;;;;36.33;26.27;;;;;;;8.99;53.02;100591.41;5034509;27;96833;-83
2023/04/28 04:42:14;;;;;;;35.30;26.85;;;;;;;8.77;53.50;100573.56;5031988;27;101261;-83
2023/04/28 04:44:45;;;;;;;40.17;27.90;;;;;;;8.91;53.38;100599.44;4996750;28;101766;-83
2023/04/28 04:47:21;;;;;;;33.97;27.33;;;;;;;8.95;53.70;100593.22;5016468;28;96726;-84
2023/04/28 04:49:48;;;;;;;36.42;28.58;;;;;;;8.84;53.61;100555.97;5015456;28;96942;-83
2023/04/28 04:52:14;;;;;;;37.20;27.55;;;;;;;8.93;53.42;100591.53;5047858;27;98726;-83
2023/04/28 04:54:40;;;;;;;35.67;26.95;;;;;;;8.94;53.53;100598.50;5027121;27;101527;-81
2023/04/28 04:57:06;;;;;;;38.95;26.63;;;;;;;8.88;53.33;100588.19;5029828;28;96845;-82
2023/04/28 04:59:54;;;;;;;30.77;27.02;;;;;;;8.96;53.04;100583.59;5012233;28;96947;-80
2023/04/28 05:02:19;;;;;;;36.47;27.15;;;;;;;9.04;53.60;100587.78;5029334;27;101241;-82
2023/04/28 05:04:45;;;;;;;33.63;26.40;;;;;;;8.96;53.03;100570.50;5026035;28;98146;-82
2023/04/28 05:07:13;;;;;;;36.28;27.10;;;;;;;9.02;53.27;100588.72;5005192;28;97216;-80
2023/04/28 05:09:39;;;;;;;38.17;25.65;;;;;;;9.06;53.34;100588.59;4983880;28;97129;-81
2023/04/28 05:12:05;;;;;;;36.85;26.23;;;;;;;9.10;53.15;100586.75;5011403;28;101688;-85
2023/04/28 05:14:31;;;;;;;36.10;27.23;;;;;;;9.16;52.82;100583.13;5013705;28;101503;-81
2023/04/28 05:16:57;;;;;;;30.20;25.08;;;;;;;9.09;52.73;100579.81;5027798;27;96752;-79
2023/04/28 05:19:25;;;;;;;30.92;25.77;;;;;;;8.87;53.56;100578.59;5041324;27;97338;-81
2023/04/28 05:21:53;;;;;;;35.83;26.08;;;;;;;8.92;53.10;100576.72;5017593;28;100719;-82
2023/04/28 05:24:22;;;;;;;32.22;26.15;;;;;;;8.94;53.23;100575.81;5011878;28;100284;-81
2023/04/28 05:26:50;;;;;;;35.03;25.77;;;;;;;9.04;52.97;100582.53;5037931;27;96734;-80
2023/04/28 05:29:17;;;;;;;37.88;25.75;;;;;;;9.08;53.37;100583.34;5014802;28;96738;-80
2023/04/28 05:31:42;;;;;;;36.97;26.63;;;;;;;9.06;53.48;100583.38;4994585;28;101008;-79
2023/04/28 05:34:08;;;;;;;32.60;26.10;;;;;;;9.10;53.56;100586.75;5008088;28;101102;-78
2023/04/28 05:36:34;;;;;;;35.97;25.85;;;;;;;9.15;53.10;100577.06;5004703;27;97391;-82
2023/04/28 05:39:00;;;;;;;33.50;26.35;;;;;;;9.31;53.44;100582.78;5021422;27;97751;-83
2023/04/28 05:41:26;;;;;;;34.75;25.95;;;;;;;9.47;53.52;100588.50;5012699;28;101276;-81
2023/04/28 05:43:53;;;;;;;35.83;26.48;;;;;;;9.40;53.12;100566.84;5009232;28;100837;-82
2023/04/28 05:46:19;;;;;;;34.10;25.88;;;;;;;9.40;53.55;100573.84;5007564;28;97835;-81
2023/04/28 05:48:45;;;;;;;36.83;25.65;;;;;;;9.43;53.59;100565.91;5028768;27;97368;-82
2023/04/28 05:51:11;;;;;;;33.80;26.23;;;;;;;9.42;52.99;100559.78;5009124;27;101670;-81
2023/04/28 05:53:36;;;;;;;32.05;26.65;;;;;;;9.56;53.26;100566.44;5026429;28;101678;-82
2023/04/28 05:56:02;;;;;;;38.22;26.98;;;;;;;9.58;52.86;100564.66;5028762;28;97443;-83
2023/04/28 05:58:29;;;;;;;32.50;26.15;;;;;;;9.63;52.65;100561.00;5012596;28;97873;-82
2023/04/28 06:00:54;;;;;;;31.65;25.13;;;;;;;9.81;52.56;100575.38;5013052;28;101202;-81
2023/04/28 06:03:20;;;;;;;27.90;24.80;;;;;;;9.68;52.87;100525.03;5031806;27;101627;-82
2023/04/28 06:05:46;;;;;;;34.10;25.25;;;;;;;10.13;52.45;100564.00;4987240;28;97091;-82
2023/04/28 06:08:13;;;;;;;35.35;25.55;;;;;;;10.15;52.31;100530.72;5003147;28;97012;-84
2023/04/28 06:10:39;;;;;;;32.42;24.30;;;;;;;10.48;51.71;100562.16;4990578;28;101382;-82
2023/04/28 06:13:05;;;;;;;31.17;25.17;;;;;;;10.63;51.91;100555.59;5013255;28;101613;-80
2023/04/28 06:15:32;;;;;;;32.65;24.65;;;;;;;10.82;51.13;100548.88;5010533;27;96864;-83
2023/04/28 06:18:00;;;;;;;29.83;24.25;;;;;;;11.05;50.69;100550.75;5026378;28;97061;-82
2023/04/28 06:20:26;;;;;;;27.30;23.55;;;;;;;11.14;50.52;100541.72;5028251;28;101612;-83
2023/04/28 06:22:53;;;;;;;29.65;24.00;;;;;;;11.23;50.11;100538.78;5010033;28;101824;-82
2023/04/28 06:25:19;;;;;;;32.13;24.85;;;;;;;11.57;50.15;100541.09;4993612;28;97227;-81
2023/04/28 06:27:45;;;;;;;36.67;24.40;;;;;;;11.64;49.35;100527.78;4995379;28;97336;-82
2023/04/28 06:30:18;;;;;;;35.85;25.17;;;;;;;11.91;48.91;100523.31;5029232;28;98137;-83
2023/04/28 06:32:43;;;;;;;27.10;23.10;;;;;;;12.19;48.57;100536.34;5029713;28;101545;-82
2023/04/28 06:35:09;;;;;;;33.55;24.90;;;;;;;12.22;47.99;100546.75;5028833;28;97215;-80
2023/04/28 06:37:34;;;;;;;32.33;25.15;;;;;;;12.33;47.87;100541.06;5024632;27;96972;-89
2023/04/28 06:40:00;;;;;;;26.70;23.38;;;;;;;12.69;47.41;100537.00;5013525;28;100312;-90
2023/04/28 06:42:26;;;;;;;27.90;22.30;;;;;;;12.94;46.80;100537.81;4996586;28;100007;-84
2023/04/28 06:44:58;;;;;;;28.58;24.20;;;;;;;13.12;45.82;100524.75;5013533;28;96761;-87
2023/04/28 06:47:26;;;;;;;32.58;24.40;;;;;;;13.40;45.95;100530.69;5009419;28;97001;-84
2023/04/28 06:49:52;;;;;;;29.75;21.17;;;;;;;13.63;45.02;100535.81;5011395;28;101659;-80
2023/04/28 06:52:20;;;;;;;27.17;22.00;;;;;;;13.54;45.19;100538.84;5018211;27;101199;-81
2023/04/28 06:54:46;;;;;;;24.63;21.77;;;;;;;13.41;45.24;100535.00;5014489;28;98927;-82
2023/04/28 06:57:11;;;;;;;25.05;21.65;;;;;;;13.22;45.39;100508.56;5000817;28;96936;-82
2023/04/28 06:59:37;;;;;;;25.23;22.42;;;;;;;13.44;44.98;100503.25;5043701;27;98420;-82
2023/04/28 07:02:02;;;;;;;30.52;23.17;;;;;;;13.51;45.31;100517.88;5005072;28;101531;-82
2023/04/28 07:04:28;;;;;;;35.15;22.38;;;;;;;13.64;45.21;100495.31;4993884;28;96789;-81
2023/04/28 07:06:53;;;;;;;25.08;20.77;;;;;;;13.79;44.39;100517.56;5007813;28;97011;-82
2023/04/28 07:09:19;;;;;;;26.05;20.50;;;;;;;13.70;44.02;100494.19;5033991;27;100208;-80
2023/04/28 07:11:45;;;;;;;27.63;20.38;;;;;;;13.92;44.20;100505.50;5001747;28;101321;-80
2023/04/28 07:14:10;;;;;;;26.83;19.83;;;;;;;13.82;43.46;100494.53;5004928;28;97375;-81
2023/04/28 07:16:36;;;;;;;25.05;20.10;;;;;;;14.01;44.12;100498.97;5022694;28;97132;-79
2023/04/28 07:19:01;;;;;;;25.75;20.30;;;;;;;14.37;43.15;100504.34;5015391;28;98161;-80
2023/04/28 07:21:27;;;;;;;24.63;19.27;;;;;;;14.77;42.48;100498.97;4989759;28;101910;-81
2023/04/28 07:23:55;;;;;;;26.27;18.38;;;;;;;14.77;41.27;100494.53;4991837;28;97283;-82
2023/04/28 07:26:24;;;;;;;24.45;19.15;;;;;;;14.79;42.24;100494.47;5018007;27;98355;-79
2023/04/28 07:28:50;;;;;;;23.77;17.40;;;;;;;14.83;41.31;100488.94;5009038;28;101592;-76
2023/04/28 07:31:16;;;;;;;25.30;17.77;;;;;;;15.00;41.65;100456.41;5010441;28;101708;-78
2023/04/28 07:33:41;;;;;;;19.88;17.95;;;;;;;15.82;40.32;100485.69;5007906;28;97348;-78
2023/04/28 07:36:07;;;;;;;19.83;16.60;;;;;;;16.27;39.03;100478.00;5001786;28;97198;-77
2023/04/28 07:38:33;;;;;;;24.48;17.92;;;;;;;16.43;38.61;100470.88;4993885;27;101724;-78
2023/04/28 07:40:59;;;;;;;19.73;17.70;;;;;;;16.63;38.34;100484.81;5021967;28;101332;-78
2023/04/28 07:43:25;;;;;;;19.48;16.63;;;;;;;16.85;37.85;100485.34;5030059;27;96822;-78
2023/04/28 07:45:50;;;;;;;24.83;17.90;;;;;;;16.90;38.54;100480.63;5012879;28;98633;-79
2023/04/28 07:48:16;;;;;;;23.58;16.98;;;;;;;17.48;37.12;100467.50;5027638;27;101575;-79
2023/04/28 07:50:41;;;;;;;19.23;17.35;;;;;;;17.81;36.31;100467.28;5012278;28;101004;-78
2023/04/28 07:53:07;;;;;;;19.10;16.92;;;;;;;18.28;36.30;100456.34;5014091;28;96853;-80
2023/04/28 07:55:33;;;;;;;19.75;17.65;;;;;;;18.95;35.27;100452.91;5013301;28;97388;-78
2023/04/28 07:57:58;;;;;;;20.83;18.70;;;;;;;19.31;34.25;100470.00;5040820;27;98055;-78
2023/04/28 08:00:25;;;;;;;23.48;18.83;;;;;;;19.41;33.99;100452.47;5010565;28;100955;-77
2023/04/28 08:02:50;;;;;;;21.05;16.50;;;;;;;19.61;32.99;100437.75;5015268;27;97793;-77
2023/04/28 08:05:16;;;;;;;18.73;16.95;;;;;;;20.00;32.18;100454.56;5012996;28;97366;-78
2023/04/28 08:07:42;;;;;;;18.50;16.70;;;;;;;20.46;31.93;100448.59;5013126;28;101752;-78
2023/04/28 08:10:09;;;;;;;17.80;15.73;;;;;;;20.89;31.16;100422.28;4988816;28;101347;-78
2023/04/28 08:12:34;;;;;;;21.92;17.42;;;;;;;21.47;30.56;100443.69;5012440;28;96823;-78
2023/04/28 08:15:00;;;;;;;17.83;16.02;;;;;;;21.50;30.03;100437.25;5009999;28;97462;-79
2023/04/28 08:17:25;;;;;;;16.63;14.95;;;;;;;21.84;29.97;100438.13;5011624;28;102323;-80
2023/04/28 08:19:51;;;;;;;17.92;16.10;;;;;;;21.90;29.25;100433.16;5013290;27;101317;-79
2023/04/28 08:22:17;;;;;;;17.70;16.00;;;;;;;22.31;29.19;100436.16;4995794;28;97311;-79
2023/04/28 08:24:42;;;;;;;19.27;17.08;;;;;;;22.28;29.08;100429.25;5010258;28;96988;-80
2023/04/28 08:27:08;;;;;;;18.45;16.85;;;;;;;22.41;28.89;100415.72;5022809;28;97541;-79
2023/04/28 08:29:33;;;;;;;17.98;16.17;;;;;;;22.41;28.50;100417.53;5015262;28;97937;-79
2023/04/28 08:32:00;;;;;;;17.70;15.75;;;;;;;22.68;28.65;100415.25;5008915;28;96837;-79
2023/04/28 08:34:26;;;;;;;17.73;16.02;;;;;;;23.14;27.68;100413.25;5011362;28;98022;-80
2023/04/28 08:36:52;;;;;;;16.35;14.95;;;;;;;23.50;27.76;100404.72;5015482;28;97630;-79
2023/04/28 08:39:19;;;;;;;17.52;15.82;;;;;;;23.81;27.20;100411.94;5010997;28;101848;-77
2023/04/28 08:41:45;;;;;;;17.13;15.52;;;;;;;23.73;27.24;100396.53;5026935;28;96848;-77
2023/04/28 08:44:11;;;;;;;16.65;15.15;;;;;;;23.93;26.29;100410.84;5013984;28;97374;-75
2023/04/28 08:46:41;;;;;;;15.75;14.35;;;;;;;23.88;26.44;100405.03;5011214;28;101400;-75
2023/04/28 08:49:13;;;;;;;15.95;14.57;;;;;;;24.03;26.36;100401.00;5008181;28;100841;-76
2023/04/28 08:51:49;;;;;;;16.67;14.95;;;;;;;24.24;26.69;100400.91;5008379;28;97383;-75
2023/04/28 08:54:15;;;;;;;16.38;15.05;;;;;;;24.30;27.08;100391.47;5009207;27;97159;-75
2023/04/28 08:56:44;;;;;;;16.65;14.68;;;;;;;24.41;26.77;100385.97;5035708;27;98487;-75
2023/04/28 08:59:10;;;;;;;16.33;14.68;;;;;;;24.92;25.53;100373.28;4995992;28;101392;-75
2023/04/28 09:01:35;;;;;;;17.10;15.25;;;;;;;24.66;25.34;100400.69;5018985;27;97472;-75
2023/04/28 09:04:01;;;;;;;16.88;15.18;;;;;;;24.05;26.35;100388.28;5023168;28;96819;-77
2023/04/28 09:06:32;;;;;;;15.35;14.15;;;;;;;24.01;26.09;100369.97;4985295;28;100860;-77
2023/04/28 09:09:16;;;;;;;;;;;;;;;24.38;25.91;100389.78;5018049;28;97703;-77
2023/04/28 09:11:52;;;;;;;16.60;15.15;;;;;;;24.43;26.05;100384.00;5041688;27;96794;-77
2023/04/28 09:14:17;;;;;;;17.05;15.38;;;;;;;24.27;26.60;100381.84;5019774;28;96869;-78
2023/04/28 09:16:43;;;;;;;16.52;14.80;;;;;;;24.23;26.57;100371.53;5006205;28;101345;-78
2023/04/28 09:19:08;;;;;;;15.85;14.30;;;;;;;24.88;25.96;100371.88;5006611;28;101478;-77
2023/04/28 09:21:46;;;;;;;16.50;15.00;;;;;;;24.87;25.30;100364.78;5013454;28;96796;-77
2023/04/28 09:24:25;;;;;;;15.02;13.73;;;;;;;25.04;25.68;100358.69;5037972;27;97370;-78
2023/04/28 09:26:50;;;;;;;16.58;14.32;;;;;;;24.90;25.61;100357.31;5026473;28;101112;-78
2023/04/28 09:29:16;;;;;;;15.43;13.90;;;;;;;24.36;26.28;100348.81;5013062;28;101789;-78
2023/04/28 09:31:42;;;;;;;15.52;14.10;;;;;;;24.93;25.64;100340.06;5020384;28;96745;-78
2023/04/28 09:34:08;;;;;;;15.00;13.75;;;;;;;25.07;25.35;100340.47;4981218;28;97154;-78
2023/04/28 09:36:33;;;;;;;15.45;14.07;;;;;;;25.15;25.36;100347.81;4995816;28;101227;-77
2023/04/28 09:38:59;;;;;;;15.80;14.40;;;;;;;24.82;25.74;100344.59;5028481;28;97946;-78
2023/04/28 09:41:39;;;;;;;16.67;15.07;;;;;;;23.94;26.55;100345.53;5044672;27;96836;-78
2023/04/28 09:44:18;;;;;;;15.35;13.85;;;;;;;23.72;26.83;100335.88;5016351;28;97102;-78
2023/04/28 09:46:45;;;;;;;15.52;14.02;;;;;;;23.68;27.42;100329.06;5027438;28;97916;-78
2023/04/28 09:49:12;;;;;;;15.05;13.55;;;;;;;23.25;27.41;100330.16;5009727;28;101271;-78
2023/04/28 09:51:38;;;;;;;16.02;14.70;;;;;;;23.01;27.29;100320.59;5012709;28;96894;-78
2023/04/28 09:54:04;;;;;;;15.35;14.07;;;;;;;22.28;28.66;100318.75;5010173;28;97559;-78
2023/04/28 09:56:32;;;;;;;15.73;14.18;;;;;;;22.23;28.65;100312.97;5012788;28;101755;-78
2023/04/28 09:58:59;;;;;;;15.32;14.02;;;;;;;22.18;28.62;100316.00;5011331;28;101625;-79
2023/04/28 10:01:32;;;;;;;15.80;13.43;;;;;;;21.99;28.85;100316.66;5012853;28;96761;-78
2023/04/28 10:03:58;;;;;;;16.52;14.48;;;;;;;21.55;29.35;100310.38;5013607;28;97678;-79
2023/04/28 10:06:24;;;;;;;14.35;13.20;;;;;;;20.89;30.46;100291.56;5010178;28;98280;-77
2023/04/28 10:08:50;;;;;;;13.77;12.57;;;;;;;20.96;30.66;100303.44;5012575;28;99063;-78
2023/04/28 10:11:16;;;;;;;15.40;13.88;;;;;;;20.67;30.94;100307.50;5013380;28;96861;-77
2023/04/28 10:13:45;;;;;;;14.23;13.05;;;;;;;20.24;31.04;100292.06;5012611;28;97376;-77
2023/04/28 10:16:12;;;;;;;14.05;12.57;;;;;;;20.31;31.72;100285.31;5029620;28;97796;-77
2023/04/28 10:18:38;;;;;;;18.52;14.13;;;;;;;20.15;31.49;100293.59;5016974;28;97887;-78
2023/04/28 10:21:04;;;;;;;13.75;12.38;;;;;;;20.04;31.89;100283.75;4996856;28;97364;-78
2023/04/28 10:23:41;;;;;;;14.43;13.07;;;;;;;20.00;31.44;100278.75;5029208;28;97251;-77
2023/04/28 10:26:12;;;;;;;13.45;12.15;;;;;;;19.36;31.42;100277.09;4992948;28;101614;-77
2023/04/28 10:28:49;;;;;;;12.05;11.07;;;;;;;19.32;32.38;100277.44;5005960;28;100906;-77
2023/04/28 10:31:20;;;;;;;13.68;12.38;;;;;;;19.35;32.42;100275.41;5012544;28;96837;-79
2023/04/28 10:33:45;;;;;;;16.67;12.18;;;;;;;19.19;32.56;100250.84;5011129;28;97376;-77
2023/04/28 10:36:51;;;;;;;14.35;13.05;;;;;;;19.07;33.31;100263.19;5012819;28;101954;-77
2023/04/28 10:39:16;;;;;;;14.15;13.00;;;;;;;19.06;32.61;100260.66;5056356;27;101428;-78
2023/04/28 10:41:45;;;;;;;14.63;11.23;;;;;;;19.09;33.25;100255.97;5012950;28;96932;-78
2023/04/28 10:44:43;;;;;;;13.65;12.05;;;;;;;19.08;33.78;100256.06;5012543;28;98000;-78
2023/04/28 10:47:09;;;;;;;13.45;12.18;;;;;;;19.02;33.61;100229.91;5007834;28;98065;-77
2023/04/28 10:49:53;;;;;;;14.63;12.25;;;;;;;18.91;33.57;100247.47;5010676;28;97391;-77
2023/04/28 10:52:41;;;;;;;14.00;12.68;;;;;;;18.44;34.09;100254.22;5028612;27;96821;-77
2023/04/28 10:55:32;;;;;;;13.10;11.80;;;;;;;18.36;34.40;100245.06;5062683;27;97253;-78
2023/04/28 10:58:19;;;;;;;15.90;13.87;;;;;;;18.39;34.71;100255.50;5029306;28;98582;-76
2023/04/28 11:00:52;;;;;;;13.40;12.40;;;;;;;18.33;34.41;100238.16;5029295;28;97573;-76
2023/04/28 11:03:39;;;;;;;14.05;12.65;;;;;;;18.44;34.65;100243.59;5028707;28;96805;-77
2023/04/28 11:06:27;;;;;;;12.95;11.75;;;;;;;18.22;34.86;100241.53;5026180;27;97728;-80
2023/04/28 11:08:55;;;;;;;13.10;11.73;;;;;;;18.16;34.53;100246.41;5043322;27;99785;-78
2023/04/28 11:11:23;;;;;;;13.40;12.20;;;;;;;18.18;34.73;100229.41;5002470;28;101317;-78